createdAt,value
2023-12-22T00:01:17.463Z,97718.00
2023-12-22T00:04:21.463Z,97709.59
2023-12-22T00:07:25.691Z,97725.06
2023-12-22T00:10:29.632Z,97758.69
2023-12-22T00:13:36.041Z,97790.97
2023-12-22T00:16:40.840Z,97807.00
2023-12-22T00:19:45.389Z,97841.28
2023-12-22T00:22:49.650Z,97840.47
2023-12-22T00:25:54.225Z,97834.09
2023-12-22T00:28:58.548Z,97864.28
2023-12-22T00:32:02.171Z,97866.31
2023-12-22T00:35:07.546Z,97876.13
2023-12-22T00:38:12.314Z,97878.06
2023-12-22T00:41:16.527Z,97885.25
2023-12-22T00:44:20.206Z,97903.31
2023-12-22T00:47:25.538Z,97911.50
2023-12-22T00:50:29.867Z,97958.56
2023-12-22T00:53:33.529Z,98008.41
2023-12-22T00:56:37.417Z,98039.16
2023-12-22T00:59:47.268Z,98075.44
2023-12-22T01:02:51.084Z,98015.69
2023-12-22T01:05:55.707Z,97985.06
2023-12-22T01:09:00.030Z,97989.31
2023-12-22T01:12:08.141Z,97974.22
2023-12-22T01:15:12.496Z,97975.63
2023-12-22T01:18:16.850Z,97979.88
2023-12-22T01:21:21.545Z,97952.81
2023-12-22T01:24:25.838Z,97968.50
2023-12-22T01:27:30.113Z,97954.59
2023-12-22T01:30:34.076Z,97956.78
2023-12-22T01:33:39.269Z,97914.28
2023-12-22T01:36:42.055Z,97921.34
2023-12-22T01:39:44.483Z,97900.94
2023-12-22T01:42:47.678Z,97923.16
2023-12-22T01:45:53.755Z,97897.69
2023-12-22T01:48:56.033Z,97868.56
2023-12-22T01:51:58.768Z,97945.84
2023-12-22T01:55:00.980Z,97965.19
2023-12-22T01:58:03.428Z,98012.88
2023-12-22T02:01:05.985Z,98031.50
2023-12-22T02:04:08.602Z,98029.22
2023-12-22T02:07:11.972Z,98030.31
2023-12-22T02:10:14.509Z,98026.00
2023-12-22T02:13:17.115Z,98021.97
2023-12-22T02:16:46.110Z,98025.31
2023-12-22T02:19:49.321Z,97998.34
2023-12-22T02:22:55.063Z,98029.59
2023-12-22T02:26:07.617Z,98028.13
2023-12-22T02:29:11.917Z,98038.50
2023-12-22T02:32:24.480Z,98056.94
2023-12-22T02:35:29.351Z,98051.09
2023-12-22T02:38:32.875Z,98071.44
2023-12-22T02:41:36.164Z,98098.47
2023-12-22T02:44:39.401Z,98101.19
2023-12-22T02:47:41.973Z,98091.47
2023-12-22T02:50:44.461Z,98077.41
2023-12-22T02:53:46.607Z,98078.44
2023-12-22T02:56:49.117Z,98092.84
2023-12-22T02:59:51.465Z,98086.69
2023-12-22T03:02:53.963Z,98073.59
2023-12-22T03:05:56.192Z,98088.94
2023-12-22T03:08:58.504Z,98094.75
2023-12-22T03:12:03.175Z,98099.16
2023-12-22T03:15:06.529Z,98079.34
2023-12-22T03:18:08.735Z,98090.09
2023-12-22T03:21:18.409Z,98080.59
2023-12-22T03:27:40.189Z,98074.63
2023-12-22T03:30:42.727Z,98065.50
2023-12-22T03:33:44.886Z,98066.47
2023-12-22T03:36:50.609Z,98072.66
2023-12-22T03:39:53.162Z,98043.47
2023-12-22T03:42:55.374Z,98023.78
2023-12-22T03:45:57.802Z,98019.16
2023-12-22T03:49:00.348Z,98034.81
2023-12-22T03:52:02.996Z,98043.16
2023-12-22T03:55:05.458Z,98065.75
2023-12-22T03:58:08.963Z,98069.50
2023-12-22T04:01:15.956Z,98081.16
2023-12-22T04:04:18.452Z,98082.59
2023-12-22T04:07:20.560Z,98100.59
2023-12-22T04:10:23.011Z,98103.09
2023-12-22T04:13:25.274Z,98116.56
2023-12-22T04:16:27.754Z,98105.59
2023-12-22T04:19:30.008Z,98108.06
2023-12-22T04:22:32.321Z,98099.28
2023-12-22T04:25:34.811Z,98092.94
2023-12-22T04:28:37.720Z,98092.31
2023-12-22T04:31:40.176Z,98081.34
2023-12-22T04:34:42.426Z,98099.56
2023-12-22T04:37:44.612Z,98115.56
2023-12-22T04:40:47.069Z,98121.22
2023-12-22T04:43:49.352Z,98127.81
2023-12-22T04:46:52.321Z,98148.53
2023-12-22T04:49:54.547Z,98153.12
2023-12-22T04:52:57.052Z,98152.38
2023-12-22T04:56:00.109Z,98142.03
2023-12-22T04:59:02.750Z,98137.62
2023-12-22T05:02:05.247Z,98145.16
2023-12-22T05:05:10.021Z,98174.47
2023-12-22T05:08:12.465Z,98157.31
2023-12-22T05:11:14.891Z,98169.66
2023-12-22T05:14:17.484Z,98188.59
2023-12-22T05:17:19.919Z,98194.37
2023-12-22T05:20:22.093Z,98178.44
2023-12-22T05:23:24.161Z,98164.91
2023-12-22T05:26:29.265Z,98171.09
2023-12-22T05:29:31.689Z,98175.69
2023-12-22T05:32:34.348Z,98173.41
2023-12-22T05:35:40.465Z,98176.84
2023-12-22T05:38:43.463Z,98165.84
2023-12-22T05:41:45.858Z,98161.84
2023-12-22T05:44:51.051Z,98149.16
2023-12-22T05:47:53.807Z,98142.41
2023-12-22T05:50:59.228Z,98148.09
2023-12-22T05:54:02.205Z,98171.19
2023-12-22T05:57:08.750Z,98174.13
2023-12-22T06:00:12.544Z,98170.91
2023-12-22T06:03:15.511Z,98170.78
2023-12-22T06:06:18.130Z,98171.63
2023-12-22T06:09:22.147Z,98192.25
2023-12-22T06:12:24.564Z,98206.16
2023-12-22T06:15:27.207Z,98199.50
2023-12-22T06:18:29.372Z,98193.88
2023-12-22T06:21:31.603Z,98178.41
2023-12-22T06:24:36.242Z,98180.31
2023-12-22T06:27:38.582Z,98171.84
2023-12-22T06:30:40.776Z,98194.63
2023-12-22T06:33:43.355Z,98224.75
2023-12-22T06:36:45.955Z,98229.38
2023-12-22T06:39:48.405Z,98243.78
2023-12-22T06:42:50.783Z,98242.03
2023-12-22T06:45:56.446Z,98231.47
2023-12-22T06:48:59.625Z,98235.81
2023-12-22T06:52:02.877Z,98240.28
2023-12-22T06:55:05.406Z,98256.84
2023-12-22T06:58:07.693Z,98263.28
2023-12-22T07:01:10.307Z,98264.28
2023-12-22T07:04:12.755Z,98276.41
2023-12-22T07:07:15.138Z,98283.31
2023-12-22T07:10:17.841Z,98303.47
2023-12-22T07:13:20.049Z,98294.25
2023-12-22T07:16:22.300Z,98307.75
2023-12-22T07:19:24.846Z,98314.38
2023-12-22T07:22:27.485Z,98311.78
2023-12-22T07:25:31.066Z,98313.25
2023-12-22T07:28:34.070Z,98310.28
2023-12-22T07:31:36.731Z,98299.28
2023-12-22T07:34:39.173Z,98279.28
2023-12-22T07:37:41.727Z,98286.03
2023-12-22T07:40:44.280Z,98301.72
2023-12-22T07:43:46.661Z,98303.25
2023-12-22T07:46:58.987Z,98316.37
2023-12-22T07:50:02.830Z,98325.78
2023-12-22T07:53:08.109Z,98319.75
2023-12-22T07:56:12.853Z,98315.41
2023-12-22T07:59:23.642Z,98314.78
2023-12-22T08:02:32.726Z,98310.00
2023-12-22T08:05:35.224Z,98319.34
2023-12-22T08:08:37.967Z,98305.78
2023-12-22T08:11:40.434Z,98307.50
2023-12-22T08:14:42.942Z,98299.06
2023-12-22T08:17:51.742Z,98294.53
2023-12-22T08:20:54.499Z,98311.31
2023-12-22T08:23:56.991Z,98316.03
2023-12-22T08:26:59.308Z,98306.84
2023-12-22T08:30:01.762Z,98300.16
2023-12-22T08:33:04.308Z,98301.25
2023-12-22T08:36:07.077Z,98288.19
2023-12-22T08:39:09.890Z,98284.38
2023-12-22T08:42:13.546Z,98288.88
2023-12-22T08:45:15.894Z,98311.81
2023-12-22T08:48:18.242Z,98316.94
2023-12-22T08:51:20.616Z,98301.50
2023-12-22T08:54:22.830Z,98302.09
2023-12-22T08:57:25.300Z,98305.00
2023-12-22T09:00:27.791Z,98300.72
2023-12-22T09:03:31.551Z,98320.66
2023-12-22T09:06:34.847Z,98320.53
2023-12-22T09:09:37.239Z,98331.72
2023-12-22T09:12:39.367Z,98347.34
2023-12-22T09:15:42.776Z,98350.13
2023-12-22T09:18:46.359Z,98355.63
2023-12-22T09:21:49.093Z,98359.66
2023-12-22T09:24:51.503Z,98379.16
2023-12-22T09:27:54.005Z,98390.47
2023-12-22T09:30:56.225Z,98391.00
2023-12-22T09:33:58.835Z,98386.00
2023-12-22T09:37:01.936Z,98376.22
2023-12-22T09:40:04.640Z,98382.09
2023-12-22T09:43:08.446Z,98393.09
2023-12-22T09:46:13.094Z,98382.16
2023-12-22T09:49:16.252Z,98368.88
2023-12-22T09:52:19.073Z,98366.38
2023-12-22T09:55:25.087Z,98358.50
2023-12-22T09:58:27.650Z,98358.00
2023-12-22T10:01:31.159Z,98351.22
2023-12-22T10:04:33.749Z,98344.41
2023-12-22T10:07:37.100Z,98343.97
2023-12-22T10:10:46.901Z,98323.81
2023-12-22T10:13:52.178Z,98331.84
2023-12-22T10:16:54.453Z,98319.06
2023-12-22T10:19:56.669Z,98317.37
2023-12-22T10:22:59.227Z,98329.31
2023-12-22T10:26:01.961Z,98323.09
2023-12-22T10:29:04.868Z,98326.44
2023-12-22T10:32:08.945Z,98341.97
2023-12-22T10:35:11.520Z,98339.81
2023-12-22T10:38:13.837Z,98345.13
2023-12-22T10:41:16.733Z,98353.56
2023-12-22T10:44:19.408Z,98357.41
2023-12-22T10:47:22.925Z,98354.47
2023-12-22T10:50:26.120Z,98358.53
2023-12-22T10:53:28.314Z,98356.94
2023-12-22T10:56:31.391Z,98367.59
2023-12-22T10:59:40.561Z,98381.78
2023-12-22T11:02:44.299Z,98395.84
2023-12-22T11:05:49.361Z,98402.78
2023-12-22T11:08:54.659Z,98395.94
2023-12-22T11:11:58.640Z,98391.53
2023-12-22T11:15:01.624Z,98387.16
2023-12-22T11:18:06.884Z,98388.31
2023-12-22T11:21:11.361Z,98394.28
2023-12-22T11:24:15.473Z,98405.63
2023-12-22T11:27:22.000Z,98398.69
2023-12-22T11:30:26.610Z,98371.50
2023-12-22T11:33:31.012Z,98348.81
2023-12-22T11:36:34.347Z,98362.41
2023-12-22T11:39:36.626Z,98346.19
2023-12-22T11:42:46.676Z,98352.31
2023-12-22T11:45:51.560Z,98369.78
2023-12-22T11:48:54.505Z,98360.41
2023-12-22T11:51:59.613Z,98376.22
2023-12-22T11:55:02.077Z,98387.34
2023-12-22T11:58:42.677Z,98380.44
2023-12-22T12:01:45.208Z,98405.66
2023-12-22T12:04:49.431Z,98374.25
2023-12-22T12:07:52.437Z,98362.03
2023-12-22T12:10:55.853Z,98347.69
2023-12-22T12:14:13.058Z,98347.09
2023-12-22T12:17:20.000Z,98364.06
2023-12-22T12:20:23.498Z,98366.91
2023-12-22T12:23:27.486Z,98379.09
2023-12-22T12:26:30.976Z,98371.44
2023-12-22T12:29:34.703Z,98363.78
2023-12-22T12:32:37.671Z,98365.81
2023-12-22T12:35:44.118Z,98359.09
2023-12-22T12:38:59.682Z,98356.34
2023-12-22T12:42:05.428Z,98348.69
2023-12-22T12:45:09.500Z,98331.16
2023-12-22T12:48:12.243Z,98322.44
2023-12-22T12:51:14.612Z,98314.44
2023-12-22T12:54:17.043Z,98294.13
2023-12-22T12:57:20.114Z,98310.84
2023-12-22T13:00:29.835Z,98286.63
2023-12-22T13:03:32.381Z,98288.41
2023-12-22T13:06:35.161Z,98311.00
2023-12-22T13:09:37.717Z,98323.66
2023-12-22T13:12:40.233Z,98335.00
2023-12-22T13:15:42.973Z,98319.25
2023-12-22T13:18:45.642Z,98307.91
2023-12-22T13:21:48.683Z,98334.03
2023-12-22T13:25:00.854Z,98346.34
2023-12-22T13:28:04.015Z,98349.94
2023-12-22T13:31:15.123Z,98346.81
2023-12-22T13:34:17.731Z,98325.88
2023-12-22T13:37:20.861Z,98329.25
2023-12-22T13:40:23.973Z,98343.34
2023-12-22T13:43:30.239Z,98338.56
2023-12-22T13:46:33.501Z,98365.28
2023-12-22T13:49:35.815Z,98367.09
2023-12-22T13:52:38.157Z,98371.41
2023-12-22T13:55:41.279Z,98388.22
2023-12-22T13:58:48.359Z,98390.03
2023-12-22T14:01:50.632Z,98397.16
2023-12-22T14:04:53.526Z,98383.09
2023-12-22T14:07:56.389Z,98376.66
2023-12-22T14:10:58.765Z,98372.59
2023-12-22T14:14:01.264Z,98378.34
2023-12-22T14:17:03.815Z,98394.13
2023-12-22T14:20:08.127Z,98373.78
2023-12-22T14:23:14.657Z,98377.13
2023-12-22T14:26:18.183Z,98366.12
2023-12-22T14:29:20.627Z,98357.88
2023-12-22T14:32:23.941Z,98356.56
2023-12-22T14:35:26.190Z,98347.50
2023-12-22T14:38:28.751Z,98331.69
2023-12-22T14:41:31.022Z,98331.69
2023-12-22T14:44:33.578Z,98322.72
2023-12-22T14:47:36.921Z,98329.34
2023-12-22T14:50:39.241Z,98340.69
2023-12-22T14:53:41.425Z,98330.03
2023-12-22T14:56:43.665Z,98329.06
2023-12-22T14:59:46.993Z,98322.34
2023-12-22T15:02:49.830Z,98322.88
2023-12-22T15:05:52.753Z,98310.06
2023-12-22T15:08:56.482Z,98322.22
2023-12-22T15:11:58.599Z,98329.09
2023-12-22T15:15:00.880Z,98317.37
2023-12-22T15:18:03.576Z,98310.78
2023-12-22T15:21:22.837Z,98320.09
2023-12-22T15:24:25.419Z,98338.16
2023-12-22T15:27:29.089Z,98314.97
2023-12-22T15:30:34.483Z,98298.47
2023-12-22T15:33:38.866Z,98305.56
2023-12-22T15:36:43.512Z,98326.47
2023-12-22T15:39:48.359Z,98354.50
2023-12-22T15:42:53.302Z,98381.34
2023-12-22T15:45:58.007Z,98388.13
2023-12-22T15:49:02.605Z,98387.19
2023-12-22T15:52:07.096Z,98364.66
2023-12-22T15:55:11.264Z,98350.53
2023-12-22T15:58:15.452Z,98318.16
2023-12-22T16:01:20.416Z,98359.56
2023-12-22T16:04:24.445Z,98378.97
2023-12-22T16:07:28.896Z,98392.56
2023-12-22T16:10:32.666Z,98374.34
2023-12-22T16:13:37.008Z,98357.16
2023-12-22T16:16:41.458Z,98362.72
2023-12-22T16:19:46.283Z,98363.03
2023-12-22T16:22:51.739Z,98375.59
2023-12-22T16:25:57.829Z,98367.09
2023-12-22T16:29:01.716Z,98361.13
2023-12-22T16:32:07.583Z,98373.50
2023-12-22T16:35:12.202Z,98373.78
2023-12-22T16:38:18.317Z,98376.63
2023-12-22T16:41:22.794Z,98383.84
2023-12-22T16:44:27.124Z,98381.22
2023-12-22T16:47:33.186Z,98395.47
2023-12-22T16:50:37.214Z,98382.69
2023-12-22T16:53:41.814Z,98389.19
2023-12-22T16:56:45.615Z,98391.78
2023-12-22T16:59:49.361Z,98408.00
2023-12-22T17:02:53.915Z,98403.78
2023-12-22T17:05:58.311Z,98397.03
2023-12-22T17:09:03.170Z,98403.53
2023-12-22T17:12:07.459Z,98406.25
2023-12-22T17:15:12.712Z,98404.31
2023-12-22T17:18:16.997Z,98406.38
2023-12-22T17:21:21.258Z,98410.78
2023-12-22T17:24:25.178Z,98408.91
2023-12-22T17:27:29.293Z,98394.88
2023-12-22T17:30:33.791Z,98394.38
2023-12-22T17:33:40.431Z,98390.00
2023-12-22T17:36:44.657Z,98372.13
2023-12-22T17:39:48.955Z,98387.09
2023-12-22T17:42:52.951Z,98385.50
2023-12-22T17:45:56.987Z,98366.47
2023-12-22T17:49:01.158Z,98373.16
2023-12-22T17:52:06.857Z,98365.31
2023-12-22T17:55:11.912Z,98375.44
2023-12-22T17:58:16.278Z,98353.41
2023-12-22T18:01:20.901Z,98347.81
2023-12-22T18:04:27.757Z,98369.69
2023-12-22T18:07:31.678Z,98377.28
2023-12-22T18:10:36.177Z,98381.44
2023-12-22T18:13:40.655Z,98388.56
2023-12-22T18:16:45.661Z,98376.22
2023-12-22T18:19:50.136Z,98368.56
2023-12-22T18:22:54.497Z,98380.72
2023-12-22T18:25:58.917Z,98375.69
2023-12-22T18:29:03.343Z,98399.22
2023-12-22T18:32:07.620Z,98380.16
2023-12-22T18:35:13.460Z,98440.97
2023-12-22T18:38:16.859Z,98364.47
2023-12-22T18:41:21.204Z,98462.94
2023-12-22T18:44:25.235Z,98438.28
2023-12-22T18:47:31.489Z,98448.34
2023-12-22T18:50:35.533Z,98460.38
2023-12-22T18:53:39.983Z,98411.41
2023-12-22T18:56:45.128Z,98457.75
2023-12-22T18:59:51.321Z,98432.84
2023-12-22T19:02:59.029Z,98455.84
2023-12-22T19:06:02.454Z,98498.63
2023-12-22T19:09:04.913Z,98482.38
2023-12-22T19:12:07.625Z,98480.12
2023-12-22T19:15:10.439Z,98496.38
2023-12-22T19:18:13.276Z,98461.66
2023-12-22T19:21:18.763Z,98498.00
2023-12-22T19:24:21.286Z,98471.56
2023-12-22T19:27:23.614Z,98494.44
2023-12-22T19:30:25.911Z,98472.22
2023-12-22T19:33:28.407Z,98503.97
2023-12-22T19:36:31.229Z,98490.59
2023-12-22T19:39:33.380Z,98493.41
2023-12-22T19:42:36.178Z,98446.06
2023-12-22T19:45:38.459Z,98417.69
2023-12-22T19:48:41.958Z,98451.38
2023-12-22T19:51:44.907Z,98460.13
2023-12-22T19:54:47.633Z,98425.19
2023-12-22T19:57:50.712Z,98404.59
2023-12-22T20:00:53.853Z,98398.44
2023-12-22T20:03:56.562Z,98392.47
2023-12-22T20:06:59.686Z,98362.69
2023-12-22T20:10:04.793Z,98355.88
2023-12-22T20:13:07.455Z,98377.13
2023-12-22T20:16:12.735Z,98414.69
2023-12-22T20:19:15.797Z,98425.25
2023-12-22T20:22:18.978Z,98401.34
2023-12-22T20:25:22.427Z,98377.28
2023-12-22T20:28:26.922Z,98394.81
2023-12-22T20:31:29.805Z,98398.06
2023-12-22T20:34:32.411Z,98374.75
2023-12-22T20:37:34.690Z,98362.91
2023-12-22T20:40:36.899Z,98373.25
2023-12-22T20:43:39.155Z,98384.53
2023-12-22T20:46:41.873Z,98343.19
2023-12-22T20:49:44.155Z,98334.50
2023-12-22T20:52:50.868Z,98340.37
2023-12-22T20:55:53.537Z,98346.50
2023-12-22T20:58:57.187Z,98332.69
2023-12-22T21:01:59.864Z,98318.88
2023-12-22T21:05:02.434Z,98309.06
2023-12-22T21:08:05.319Z,98312.12
2023-12-22T21:11:08.687Z,98319.00
2023-12-22T21:14:11.467Z,98310.03
2023-12-22T21:17:13.917Z,98307.03
2023-12-22T21:20:17.018Z,98309.06
2023-12-22T21:23:19.944Z,98292.47
2023-12-22T21:26:22.714Z,98282.56
2023-12-22T21:29:25.210Z,98290.84
2023-12-22T21:32:29.059Z,98296.66
2023-12-22T21:35:31.319Z,98286.78
2023-12-22T21:38:34.093Z,98273.34
2023-12-22T21:41:36.273Z,98264.56
2023-12-22T21:44:42.528Z,98271.50
2023-12-22T21:47:45.012Z,98251.47
2023-12-22T21:50:48.636Z,98241.78
2023-12-22T21:53:50.855Z,98269.09
2023-12-22T21:56:54.402Z,98248.25
2023-12-22T21:59:56.830Z,98228.09
2023-12-22T22:02:58.972Z,98240.37
2023-12-22T22:06:01.641Z,98251.81
2023-12-22T22:09:04.283Z,98222.31
2023-12-22T22:12:06.899Z,98214.38
2023-12-22T22:15:09.732Z,98212.09
2023-12-22T22:18:12.257Z,98227.47
2023-12-22T22:21:14.708Z,98214.53
2023-12-22T22:24:16.922Z,98228.75
2023-12-22T22:27:19.171Z,98224.63
2023-12-22T22:30:23.431Z,98211.00
2023-12-22T22:33:25.904Z,98180.03
2023-12-22T22:36:28.409Z,98183.47
2023-12-22T22:39:31.676Z,98189.69
2023-12-22T22:42:34.323Z,98179.16
2023-12-22T22:45:36.801Z,98173.13
2023-12-22T22:48:39.616Z,98175.06
2023-12-22T22:51:42.083Z,98161.47
2023-12-22T22:54:44.625Z,98155.50
2023-12-22T22:57:47.150Z,98171.97
2023-12-22T23:00:49.577Z,98179.78
2023-12-22T23:03:54.493Z,98161.06
2023-12-22T23:07:01.425Z,98163.84
2023-12-22T23:10:04.599Z,98178.63
2023-12-22T23:13:07.110Z,98165.59
2023-12-22T23:16:09.456Z,98167.53
2023-12-22T23:19:12.029Z,98170.22
2023-12-22T23:22:14.625Z,98139.16
2023-12-22T23:25:17.155Z,98132.38
2023-12-22T23:28:19.591Z,98153.28
2023-12-22T23:31:22.025Z,98157.63
2023-12-22T23:34:24.506Z,98129.94
2023-12-22T23:37:26.994Z,98112.63
2023-12-22T23:40:29.215Z,98123.19
2023-12-22T23:43:31.757Z,98146.41
2023-12-22T23:46:34.250Z,98127.25
2023-12-22T23:49:36.526Z,98117.81
2023-12-22T23:52:39.139Z,98117.75
2023-12-22T23:55:41.466Z,98119.69
2023-12-22T23:58:43.996Z,98105.91
